Time;durP1;ratioP1;P1;durP2;ratioP2;P2;SDS_P1;SDS_P2;PMS_P1;PMS_P2;Temp;Humidity;BMP_temperature;BMP_pressure;BME280_temperature;BME280_humidity;BME280_pressure;Samples;Min_cycle;Max_cycle;Signal;HPM_P1;HPM_P2
2022/06/25 00:02:01;;;;;;;5.40;4.20;;;;;;;23.14;58.02;99577.88;4961006;28;20038;-80
2022/06/25 00:07:13;;;;;;;7.88;3.90;;;;;;;23.09;57.94;99575.84;4946879;28;20048;-81
2022/06/25 00:09:40;;;;;;;6.47;4.03;;;;;;;23.08;57.93;99574.22;4959358;28;20050;-82
2022/06/25 00:14:52;;;;;;;5.28;2.83;;;;;;;23.08;58.09;99567.97;4970995;28;20050;-85
2022/06/25 00:17:20;;;;;;;3.15;2.47;;;;;;;23.08;58.23;99570.69;4976518;28;20102;-85
2022/06/25 00:19:47;;;;;;;6.60;3.33;;;;;;;23.07;58.05;99574.41;4970389;28;20049;-85
2022/06/25 00:22:14;;;;;;;3.90;2.60;;;;;;;23.06;58.03;99572.78;4967120;28;20449;-85
2022/06/25 00:24:41;;;;;;;5.28;2.30;;;;;;;23.05;58.27;99579.22;4948027;28;20050;-85
2022/06/25 00:27:08;;;;;;;5.20;2.63;;;;;;;23.04;58.32;99585.69;4979033;28;20088;-86
2022/06/25 00:29:34;;;;;;;5.68;2.00;;;;;;;23.02;58.06;99585.09;4980604;28;20045;-86
2022/06/25 00:32:01;;;;;;;3.85;2.38;;;;;;;23.01;58.14;99586.16;4981099;28;20050;-82
2022/06/25 00:34:28;;;;;;;7.57;2.42;;;;;;;22.96;58.36;99584.91;4979948;28;20108;-86
2022/06/25 00:36:55;;;;;;;4.57;2.15;;;;;;;22.96;58.13;99590.31;4978050;28;20053;-85
2022/06/25 00:39:22;;;;;;;4.60;2.13;;;;;;;22.94;58.00;99597.81;4976056;28;20805;-84
2022/06/25 00:41:49;;;;;;;2.65;2.17;;;;;;;22.91;57.96;99597.47;4975820;28;20594;-86
2022/06/25 00:44:16;;;;;;;3.97;2.00;;;;;;;22.89;58.30;99599.53;4978191;28;20052;-85
2022/06/25 00:46:47;;;;;;;4.40;2.20;;;;;;;22.85;58.19;99599.19;4995779;28;20053;-83
2022/06/25 00:49:14;;;;;;;2.70;2.20;;;;;;;22.83;58.07;99598.56;4983422;28;20057;-85
2022/06/25 00:51:47;;;;;;;4.82;1.90;;;;;;;22.79;57.76;99608.16;4979396;28;20053;-85
2022/06/25 00:54:16;;;;;;;3.10;2.08;;;;;;;22.74;57.99;99614.28;4965950;28;20093;-86
2022/06/25 00:56:49;;;;;;;9.60;2.40;;;;;;;22.71;58.03;99616.56;4948282;28;20047;-83
2022/06/25 00:59:21;;;;;;;2.92;1.90;;;;;;;22.70;58.19;99612.22;4981459;28;20046;-85
2022/06/25 01:01:48;;;;;;;2.20;2.00;;;;;;;22.69;57.99;99615.94;4970682;28;20056;-81
2022/06/25 01:04:15;;;;;;;4.75;1.85;;;;;;;22.68;58.18;99615.13;4987066;28;20054;-81
2022/06/25 01:06:43;;;;;;;7.47;2.20;;;;;;;22.66;58.34;99609.09;4970228;28;20049;-81
2022/06/25 01:09:10;;;;;;;4.13;1.92;;;;;;;22.65;58.16;99615.56;4997038;28;20136;-85
2022/06/25 01:11:37;;;;;;;7.15;1.90;;;;;;;22.64;58.22;99607.66;5001236;28;20119;-84
2022/06/25 01:14:09;;;;;;;4.22;1.92;;;;;;;22.61;58.37;99614.34;4940132;28;20043;-80
2022/06/25 01:16:36;;;;;;;3.72;2.38;;;;;;;22.62;58.37;99615.16;4985495;28;20053;-81
2022/06/25 01:19:10;;;;;;;3.17;2.63;;;;;;;22.59;58.65;99612.91;4957084;28;20053;-81
2022/06/25 01:21:40;;;;;;;4.82;3.30;;;;;;;22.61;58.51;99613.53;4956047;28;20042;-81
2022/06/25 01:24:07;;;;;;;4.65;3.05;;;;;;;22.60;58.41;99610.00;4971397;28;21133;-81
2022/06/25 01:26:39;;;;;;;3.63;2.90;;;;;;;22.58;58.47;99614.78;4948364;28;20044;-81
2022/06/25 01:29:06;;;;;;;4.43;3.10;;;;;;;22.57;58.42;99613.16;4966484;28;20038;-81
2022/06/25 01:31:33;;;;;;;3.47;2.83;;;;;;;22.54;58.22;99613.56;4987955;28;20042;-80
2022/06/25 01:34:00;;;;;;;5.28;2.80;;;;;;;22.51;58.25;99605.88;4964264;28;20046;-87
2022/06/25 01:36:27;;;;;;;3.50;3.20;;;;;;;22.48;58.05;99606.34;4984161;28;20545;-87
2022/06/25 01:38:55;;;;;;;3.70;2.83;;;;;;;22.44;58.23;99600.53;4966919;28;20074;-87
2022/06/25 01:41:21;;;;;;;4.00;2.67;;;;;;;22.41;58.32;99609.06;4937497;28;20442;-86
2022/06/25 01:43:48;;;;;;;3.67;2.45;;;;;;;22.39;58.30;99607.63;4971871;28;20132;-88
2022/06/25 01:46:16;;;;;;;2.70;2.50;;;;;;;22.35;58.29;99606.44;4978182;28;20488;-85
2022/06/25 01:48:43;;;;;;;4.43;2.72;;;;;;;22.31;58.21;99609.56;4978552;28;20050;-84
2022/06/25 01:51:09;;;;;;;3.45;2.65;;;;;;;22.28;58.10;99615.41;4982295;28;20401;-86
2022/06/25 01:53:36;;;;;;;3.10;2.05;;;;;;;22.25;58.29;99618.53;4966343;28;20053;-86
2022/06/25 01:56:03;;;;;;;3.25;2.08;;;;;;;22.22;58.18;99615.47;4995149;28;20397;-86
2022/06/25 01:58:31;;;;;;;6.32;2.30;;;;;;;22.18;58.36;99620.41;4955256;28;20046;-86
2022/06/25 02:00:58;;;;;;;4.70;2.92;;;;;;;22.16;58.25;99622.53;4948916;28;20070;-85
2022/06/25 02:03:26;;;;;;;4.25;2.20;;;;;;;22.13;58.38;99619.41;4950618;28;20047;-85
2022/06/25 02:05:58;;;;;;;3.35;2.40;;;;;;;22.11;58.33;99622.34;4980517;28;20072;-82
2022/06/25 02:08:26;;;;;;;5.35;2.10;;;;;;;22.10;58.41;99626.09;4935734;28;20100;-82
2022/06/25 02:10:53;;;;;;;7.88;2.30;;;;;;;22.08;58.29;99629.03;4963562;28;20514;-82
2022/06/25 02:13:20;;;;;;;3.22;2.03;;;;;;;22.07;58.30;99629.22;4958909;28;20049;-82
2022/06/25 02:15:47;;;;;;;2.20;1.90;;;;;;;22.07;58.38;99623.81;4985559;28;20049;-88
2022/06/25 02:18:14;;;;;;;3.97;2.00;;;;;;;22.08;58.42;99630.88;4997580;28;20042;-88
2022/06/25 02:20:42;;;;;;;2.17;1.63;;;;;;;22.08;58.63;99622.75;4949241;28;20401;-88
2022/06/25 02:23:09;;;;;;;4.22;2.00;;;;;;;22.08;58.40;99633.56;4980855;28;20057;-88
2022/06/25 02:25:36;;;;;;;5.22;2.25;;;;;;;22.08;58.50;99626.31;4952251;28;20053;-87
2022/06/25 02:28:10;;;;;;;3.67;2.95;;;;;;;22.08;58.88;99631.72;4971192;28;20126;-87
2022/06/25 02:30:37;;;;;;;5.80;3.70;;;;;;;22.11;59.18;99638.59;4945185;28;20069;-87
2022/06/25 02:33:11;;;;;;;5.57;3.75;;;;;;;22.10;59.19;99632.31;4968988;28;20064;-87
2022/06/25 02:35:41;;;;;;;8.30;4.97;;;;;;;22.13;59.26;99639.16;4951774;28;20054;-84
2022/06/25 02:38:10;;;;;;;13.23;6.00;;;;;;;22.15;59.14;99642.50;4970130;28;20073;-87
2022/06/25 02:40:37;;;;;;;6.60;4.55;;;;;;;22.15;58.96;99637.09;4978256;28;20128;-87
2022/06/25 02:43:05;;;;;;;11.23;5.07;;;;;;;22.14;58.85;99637.31;4966397;28;20475;-88
2022/06/25 02:45:38;;;;;;;6.35;4.45;;;;;;;22.12;58.83;99632.13;4966304;28;20058;-82
2022/06/25 02:48:06;;;;;;;6.20;4.38;;;;;;;22.09;58.78;99627.16;4955066;28;20093;-81
2022/06/25 02:50:32;;;;;;;7.15;4.57;;;;;;;22.05;58.94;99629.44;4948749;28;20103;-82
2022/06/25 02:52:59;;;;;;;5.65;4.03;;;;;;;22.02;58.73;99629.03;4952517;28;20563;-82
2022/06/25 03:00:58;;;;;;;7.40;3.70;;;;;;;21.96;58.26;99638.84;4955853;28;20105;-81
2022/06/25 03:03:25;;;;;;;5.05;3.00;;;;;;;21.94;57.95;99642.81;4968409;28;20101;-85
2022/06/25 03:05:52;;;;;;;4.72;2.40;;;;;;;21.91;58.16;99643.25;4961109;28;20061;-85
2022/06/25 03:08:19;;;;;;;4.30;2.50;;;;;;;21.86;58.17;99649.28;4979902;28;20444;-85
2022/06/25 03:10:46;;;;;;;4.63;2.17;;;;;;;21.82;58.00;99650.75;4982857;28;20096;-85
2022/06/25 03:13:13;;;;;;;3.80;2.40;;;;;;;21.75;58.27;99652.63;4969850;28;20047;-85
2022/06/25 03:15:40;;;;;;;3.38;2.13;;;;;;;21.72;58.22;99653.06;4945581;28;20053;-85
2022/06/25 03:18:09;;;;;;;5.78;2.00;;;;;;;21.68;58.63;99663.50;4966343;28;20049;-87
2022/06/25 03:21:08;;;;;;;8.23;2.67;;;;;;;21.65;58.69;99666.59;4890481;28;20038;-87
2022/06/25 03:23:36;;;;;;;3.83;2.25;;;;;;;21.63;58.77;99666.81;4976133;28;20050;-87
2022/06/25 03:26:03;;;;;;;3.15;2.85;;;;;;;21.64;59.04;99671.16;4969613;28;20490;-84
2022/06/25 03:28:30;;;;;;;4.47;3.40;;;;;;;21.62;59.21;99673.25;4981026;28;20060;-87
2022/06/25 03:30:58;;;;;;;7.07;4.35;;;;;;;21.62;59.42;99672.44;4945457;28;20520;-80
2022/06/25 03:33:25;;;;;;;9.88;4.30;;;;;;;21.62;59.68;99675.13;4976182;28;20494;-81
2022/06/25 03:36:07;;;;;;;4.38;3.92;;;;;;;21.63;59.70;99676.81;4930585;28;20398;-80
2022/06/25 03:38:40;;;;;;;4.43;3.67;;;;;;;21.64;59.86;99670.34;4977301;28;20678;-80
2022/06/25 03:41:50;;;;;;;5.65;4.05;;;;;;;21.64;60.07;99675.75;4977058;28;20050;-80
2022/06/25 03:44:11;;;;;;;6.22;4.55;;;;;;;21.63;59.90;99671.41;4882507;28;20382;-84
2022/06/25 03:46:39;;;;;;;7.80;4.82;;;;;;;21.64;59.96;99673.06;4951228;28;20129;-85
2022/06/25 03:49:06;;;;;;;6.25;4.20;;;;;;;21.63;60.07;99676.81;4987220;28;20551;-82
2022/06/25 03:51:55;;;;;;;5.55;4.20;;;;;;;21.64;59.79;99676.56;4940591;28;20100;-85
2022/06/25 03:54:22;;;;;;;5.50;3.90;;;;;;;21.64;60.21;99678.47;4992884;28;20050;-85
2022/06/25 03:56:49;;;;;;;4.30;3.60;;;;;;;21.62;60.00;99678.66;4978374;28;20062;-87
2022/06/25 03:59:19;;;;;;;4.60;3.83;;;;;;;21.60;60.06;99677.22;4977891;28;20054;-87
2022/06/25 04:01:51;;;;;;;7.35;3.75;;;;;;;21.57;60.36;99681.16;4996636;28;20045;-87
2022/06/25 04:04:19;;;;;;;5.40;3.67;;;;;;;21.57;60.18;99675.75;4970956;28;20061;-86
2022/06/25 04:06:46;;;;;;;5.68;3.85;;;;;;;21.55;60.28;99675.16;4951331;28;20052;-87
2022/06/25 04:09:13;;;;;;;5.78;3.60;;;;;;;21.56;60.21;99678.69;4950855;28;20045;-87
2022/06/25 04:11:43;;;;;;;6.88;4.00;;;;;;;21.58;60.48;99679.31;4934769;28;20057;-88
2022/06/25 04:14:11;;;;;;;5.10;3.75;;;;;;;21.58;60.23;99673.91;4991130;28;20050;-88
2022/06/25 04:16:38;;;;;;;9.68;3.92;;;;;;;21.59;60.49;99667.44;4951801;28;20137;-85
2022/06/25 04:19:11;;;;;;;8.68;3.85;;;;;;;21.60;60.50;99682.59;4952327;28;20457;-85
2022/06/25 04:21:39;;;;;;;4.50;4.03;;;;;;;21.65;60.52;99685.50;4952771;28;20539;-85
2022/06/25 04:24:07;;;;;;;6.55;4.07;;;;;;;21.74;60.38;99681.53;4995591;28;20061;-80
2022/06/25 04:26:33;;;;;;;9.90;3.63;;;;;;;21.92;60.61;99693.56;4959638;28;20441;-81
2022/06/25 04:29:04;;;;;;;8.23;3.95;;;;;;;21.98;60.42;99688.13;4956748;28;20046;-85
2022/06/25 04:31:39;;;;;;;6.75;3.45;;;;;;;22.02;60.61;99699.34;4964290;28;20049;-85
2022/06/25 04:34:12;;;;;;;8.32;2.60;;;;;;;22.06;60.18;99698.72;4972270;28;20045;-85
2022/06/25 04:36:39;;;;;;;5.22;2.47;;;;;;;22.20;60.50;99690.56;4996210;28;20045;-85
2022/06/25 04:39:13;;;;;;;7.13;2.10;;;;;;;22.37;60.38;99694.44;4965856;28;20042;-82
2022/06/25 04:41:40;;;;;;;4.63;2.22;;;;;;;22.41;59.92;99692.94;4964012;28;20045;-85
2022/06/25 04:44:16;;;;;;;2.50;2.30;;;;;;;22.40;59.78;99687.75;4969238;28;20077;-81
2022/06/25 04:46:43;;;;;;;4.32;2.40;;;;;;;22.42;59.83;99691.09;4971019;28;20042;-81
2022/06/25 04:49:11;;;;;;;4.05;2.25;;;;;;;22.55;59.86;99691.00;4966966;28;20042;-81
2022/06/25 04:51:42;;;;;;;4.53;2.55;;;;;;;22.66;59.70;99687.59;4964052;28;20045;-81
2022/06/25 04:54:10;;;;;;;5.57;2.75;;;;;;;22.77;59.52;99702.31;4955989;28;20046;-81
2022/06/25 04:56:39;;;;;;;3.35;2.25;;;;;;;22.84;59.72;99700.38;4952768;28;20425;-81
2022/06/25 04:59:06;;;;;;;4.55;2.63;;;;;;;22.90;59.54;99704.13;4984428;28;20185;-82
2022/06/25 05:01:52;;;;;;;3.92;2.85;;;;;;;22.86;58.98;99711.00;4993679;28;20046;-81
2022/06/25 05:04:27;;;;;;;4.53;3.03;;;;;;;22.80;59.47;99714.59;4970092;28;20132;-82
2022/06/25 05:06:54;;;;;;;5.82;3.17;;;;;;;22.74;59.83;99717.13;4982101;28;20054;-82
2022/06/25 05:09:21;;;;;;;6.18;3.42;;;;;;;22.74;60.03;99719.84;4990735;28;20133;-81
2022/06/25 05:11:48;;;;;;;11.10;3.55;;;;;;;22.71;59.80;99730.25;4970271;28;20050;-82
2022/06/25 05:14:15;;;;;;;7.53;2.97;;;;;;;22.70;60.20;99734.00;4954129;28;20077;-81
2022/06/25 05:16:45;;;;;;;5.22;3.20;;;;;;;22.67;60.28;99737.13;4949597;28;20051;-81
2022/06/25 05:19:12;;;;;;;4.50;3.20;;;;;;;22.64;60.66;99746.53;4981086;28;20077;-85
2022/06/25 05:21:39;;;;;;;10.65;3.95;;;;;;;22.59;60.45;99740.91;4972470;28;20605;-86
2022/06/25 05:24:08;;;;;;;6.32;3.90;;;;;;;22.54;60.24;99746.16;4969151;28;20050;-86
2022/06/25 05:26:35;;;;;;;7.20;3.70;;;;;;;22.49;60.95;99744.13;4966837;28;20041;-82
2022/06/25 05:29:02;;;;;;;5.05;2.70;;;;;;;22.46;60.81;99741.81;4938042;28;20163;-82
2022/06/25 05:31:28;;;;;;;5.82;2.70;;;;;;;22.48;60.48;99733.50;4969044;28;20098;-81
2022/06/25 05:33:55;;;;;;;8.40;3.30;;;;;;;22.40;60.86;99736.47;4961135;28;20054;-81
2022/06/25 05:36:22;;;;;;;4.05;3.03;;;;;;;22.41;61.02;99738.09;4954725;28;20474;-81
2022/06/25 05:38:49;;;;;;;7.38;3.40;;;;;;;22.44;61.38;99738.53;4984907;28;20054;-87
2022/06/25 05:41:16;;;;;;;7.32;3.30;;;;;;;22.41;60.76;99736.22;4968824;28;20053;-86
2022/06/25 05:43:43;;;;;;;9.18;3.80;;;;;;;22.31;60.96;99739.41;4987725;28;20057;-88
2022/06/25 05:46:10;;;;;;;6.97;3.30;;;;;;;22.27;61.84;99740.88;4961487;28;20050;-88
2022/06/25 05:48:37;;;;;;;5.07;3.30;;;;;;;22.35;61.56;99737.09;4997138;28;20049;-87
2022/06/25 05:51:03;;;;;;;6.72;3.40;;;;;;;22.35;61.43;99742.50;4969225;28;20414;-86
2022/06/25 05:53:31;;;;;;;7.97;3.13;;;;;;;22.38;61.84;99736.66;4999248;28;20683;-88
2022/06/25 05:55:58;;;;;;;4.53;3.05;;;;;;;22.42;62.16;99739.78;4963188;28;20100;-80
2022/06/25 05:58:25;;;;;;;4.63;2.75;;;;;;;22.45;62.07;99737.47;4976712;28;20568;-80
2022/06/25 06:00:51;;;;;;;4.28;2.80;;;;;;;22.49;61.40;99741.41;4965796;28;20050;-80
2022/06/25 06:03:18;;;;;;;6.80;3.13;;;;;;;22.51;61.43;99744.72;4961537;28;20378;-80
2022/06/25 06:05:45;;;;;;;8.75;2.90;;;;;;;22.50;61.58;99745.78;4978800;28;20038;-80
2022/06/25 06:08:13;;;;;;;6.38;2.70;;;;;;;22.51;61.12;99746.59;4978731;28;20054;-87
2022/06/25 06:10:40;;;;;;;4.45;2.22;;;;;;;22.56;61.35;99754.06;4981052;28;20048;-80
2022/06/25 06:13:07;;;;;;;4.35;2.28;;;;;;;22.56;61.41;99754.91;4967465;28;20053;-80
2022/06/25 06:15:34;;;;;;;3.40;2.38;;;;;;;22.61;61.79;99751.53;4969493;28;20056;-80
2022/06/25 06:18:01;;;;;;;3.45;2.65;;;;;;;22.65;61.26;99753.59;4959957;28;20050;-82
2022/06/25 06:20:28;;;;;;;8.52;2.80;;;;;;;22.67;61.45;99756.09;4985065;28;20054;-82
2022/06/25 06:22:56;;;;;;;5.07;2.70;;;;;;;22.70;61.33;99756.50;4966550;28;20478;-82
2022/06/25 06:25:23;;;;;;;4.93;2.67;;;;;;;22.68;61.22;99755.88;4980327;28;20069;-82
2022/06/25 06:27:49;;;;;;;2.88;1.88;;;;;;;22.67;61.58;99753.38;4967888;28;20045;-78
2022/06/25 06:30:16;;;;;;;3.65;1.90;;;;;;;22.66;61.63;99751.72;4949866;28;20440;-77
2022/06/25 06:32:43;;;;;;;3.05;2.03;;;;;;;22.69;61.33;99748.56;4962803;28;20054;-81
2022/06/25 06:35:10;;;;;;;6.25;2.63;;;;;;;22.71;61.70;99757.31;4980508;28;20092;-82
2022/06/25 06:37:38;;;;;;;5.88;2.92;;;;;;;22.65;61.63;99761.72;4976513;28;20053;-80
2022/06/25 06:40:06;;;;;;;7.07;2.88;;;;;;;22.62;61.94;99761.31;4951320;28;20054;-83
2022/06/25 06:42:33;;;;;;;5.20;2.35;;;;;;;22.65;62.32;99759.03;4976530;28;20042;-80
2022/06/25 06:45:00;;;;;;;5.50;2.13;;;;;;;22.72;62.37;99753.59;4969905;28;20082;-80
2022/06/25 06:47:26;;;;;;;8.18;2.25;;;;;;;22.76;62.27;99760.22;4978906;28;20501;-80
2022/06/25 06:49:53;;;;;;;3.10;2.08;;;;;;;22.73;62.43;99755.22;4952420;28;20103;-80
2022/06/25 06:52:20;;;;;;;5.18;2.50;;;;;;;22.68;61.56;99755.06;4983717;28;20055;-80
2022/06/25 06:54:48;;;;;;;3.53;2.28;;;;;;;22.65;62.19;99752.78;4976488;28;20112;-80
2022/06/25 06:57:15;;;;;;;3.50;2.03;;;;;;;22.72;62.42;99757.13;4995230;28;20077;-80
2022/06/25 06:59:42;;;;;;;4.20;1.80;;;;;;;22.76;62.38;99760.22;4981580;28;20578;-80
2022/06/25 07:02:09;;;;;;;3.20;2.10;;;;;;;22.78;62.05;99758.13;4987368;28;20046;-79
2022/06/25 07:04:36;;;;;;;3.30;1.90;;;;;;;22.82;60.57;99758.50;4958597;28;20058;-80
2022/06/25 07:07:04;;;;;;;1.85;1.60;;;;;;;22.71;60.51;99752.72;4973832;28;20047;-80
2022/06/25 07:09:31;;;;;;;3.42;1.20;;;;;;;22.72;61.15;99753.59;4981865;28;20048;-79
2022/06/25 07:11:58;;;;;;;4.65;1.50;;;;;;;22.67;60.32;99751.53;4994129;28;20149;-80
2022/06/25 07:14:27;;;;;;;3.35;1.92;;;;;;;22.72;59.87;99759.00;4985097;28;20116;-82
2022/06/25 07:16:54;;;;;;;3.22;1.75;;;;;;;22.73;60.38;99753.34;4996630;28;20610;-82
2022/06/25 07:19:20;;;;;;;4.95;2.08;;;;;;;22.78;60.63;99751.88;4962480;28;20114;-82
2022/06/25 07:21:47;;;;;;;2.53;1.40;;;;;;;22.80;60.74;99749.78;4994024;28;20050;-83
2022/06/25 07:24:14;;;;;;;3.05;1.83;;;;;;;22.89;61.23;99748.47;4979056;28;20072;-79
2022/06/25 07:26:41;;;;;;;7.07;1.77;;;;;;;22.78;60.44;99746.47;4973446;28;20050;-79
2022/06/25 07:29:07;;;;;;;4.28;1.98;;;;;;;22.79;60.22;99746.22;4965037;28;20485;-79
2022/06/25 07:31:34;;;;;;;2.58;1.83;;;;;;;22.80;59.82;99747.09;4984116;28;20442;-79
2022/06/25 07:34:01;;;;;;;3.80;1.65;;;;;;;22.81;59.36;99746.03;4952994;28;20367;-78
2022/06/25 07:36:28;;;;;;;4.80;1.63;;;;;;;22.79;59.13;99738.09;4962048;28;20054;-78
2022/06/25 07:38:55;;;;;;;3.17;1.65;;;;;;;22.79;59.51;99738.09;4960449;28;20141;-80
2022/06/25 07:41:22;;;;;;;3.17;1.42;;;;;;;22.83;59.28;99738.53;4974796;28;20181;-79
2022/06/25 07:43:49;;;;;;;2.67;1.65;;;;;;;22.86;60.06;99738.91;4950967;28;20057;-78
2022/06/25 07:46:16;;;;;;;1.60;1.50;;;;;;;22.90;60.08;99739.31;4991493;28;20042;-78
2022/06/25 07:48:43;;;;;;;3.45;1.50;;;;;;;22.96;59.83;99741.13;4993275;28;20065;-78
2022/06/25 07:53:55;;;;;;;4.82;1.90;;;;;;;23.06;59.44;99729.84;4960674;28;20050;-78
2022/06/25 07:56:22;;;;;;;2.10;2.00;;;;;;;23.05;59.37;99734.44;4993572;28;20038;-77
2022/06/25 07:58:49;;;;;;;3.45;1.90;;;;;;;23.08;59.12;99733.19;4980306;28;20151;-77
2022/06/25 08:01:16;;;;;;;4.13;1.80;;;;;;;22.99;59.79;99746.13;4977087;28;20042;-78
2022/06/25 08:03:43;;;;;;;11.18;1.90;;;;;;;22.99;59.39;99726.34;4980155;28;20046;-79
2022/06/25 08:06:10;;;;;;;5.30;2.03;;;;;;;23.05;59.44;99726.31;4978164;28;20932;-79
2022/06/25 08:08:37;;;;;;;2.00;1.80;;;;;;;23.08;59.13;99731.28;4974280;28;20046;-80
2022/06/25 08:11:04;;;;;;;2.60;1.98;;;;;;;23.06;58.64;99732.56;4978631;28;20049;-82
2022/06/25 08:13:31;;;;;;;3.47;1.90;;;;;;;23.15;59.02;99733.94;4965787;28;20046;-82
2022/06/25 08:15:59;;;;;;;3.92;1.90;;;;;;;23.19;59.12;99717.03;4947706;28;20045;-81
2022/06/25 08:18:26;;;;;;;4.13;2.28;;;;;;;23.16;58.80;99722.88;4981300;28;20085;-83
2022/06/25 08:20:53;;;;;;;2.70;1.70;;;;;;;23.20;58.59;99720.56;4972415;28;20370;-78
2022/06/25 08:23:19;;;;;;;3.22;1.52;;;;;;;23.17;58.22;99727.25;4976256;28;20038;-78
2022/06/25 08:25:46;;;;;;;2.92;1.98;;;;;;;23.18;58.89;99718.09;4981577;28;20045;-87
2022/06/25 08:28:13;;;;;;;5.10;1.98;;;;;;;23.24;59.11;99721.78;4992120;28;20084;-87
2022/06/25 08:30:42;;;;;;;4.93;1.80;;;;;;;23.22;59.10;99717.63;4984939;28;20081;-87
2022/06/25 08:33:10;;;;;;;3.92;1.83;;;;;;;23.32;58.99;99721.50;4997360;28;20580;-86
2022/06/25 08:35:37;;;;;;;4.57;2.05;;;;;;;23.29;58.34;99716.53;4992510;28;20071;-86
2022/06/25 08:38:04;;;;;;;2.67;1.83;;;;;;;23.25;58.38;99711.75;4982063;28;20042;-88
2022/06/25 08:40:31;;;;;;;2.47;1.83;;;;;;;23.29;58.41;99713.81;4962423;28;20062;-87
2022/06/25 08:42:58;;;;;;;3.40;2.10;;;;;;;23.29;58.33;99707.56;4976995;28;20120;-86
2022/06/25 08:45:25;;;;;;;3.05;1.70;;;;;;;23.31;58.34;99709.00;4977501;28;20054;-88
2022/06/25 08:47:53;;;;;;;4.63;1.67;;;;;;;23.32;58.84;99705.22;4978548;28;20041;-86
2022/06/25 08:50:21;;;;;;;6.60;2.03;;;;;;;23.40;58.85;99704.13;4978837;28;20413;-87
2022/06/25 08:52:52;;;;;;;2.53;1.90;;;;;;;23.53;57.93;99703.16;4985350;28;20401;-85
2022/06/25 08:55:36;;;;;;;3.67;2.03;;;;;;;23.60;58.30;99698.50;4997962;28;20058;-83
2022/06/25 08:58:04;;;;;;;2.85;1.95;;;;;;;23.55;58.65;99699.19;4963030;28;20046;-82
2022/06/25 09:00:34;;;;;;;4.45;1.90;;;;;;;23.43;57.38;99686.59;4974636;28;20129;-82
2022/06/25 09:03:01;;;;;;;2.38;2.05;;;;;;;23.49;58.24;99691.97;4977507;28;20042;-82
2022/06/25 09:05:34;;;;;;;3.78;1.90;;;;;;;23.45;58.01;99687.19;4982652;28;20069;-81
2022/06/25 09:08:03;;;;;;;3.15;2.03;;;;;;;23.50;58.06;99690.88;4975821;28;20408;-81
2022/06/25 09:10:30;;;;;;;3.33;2.05;;;;;;;23.46;57.47;99687.00;4996460;28;20046;-83
2022/06/25 09:13:00;;;;;;;3.17;1.73;;;;;;;23.43;57.72;99681.16;4984389;28;20520;-82
2022/06/25 09:15:35;;;;;;;1.98;1.73;;;;;;;23.39;57.85;99678.91;4994253;28;20048;-82
2022/06/25 09:18:07;;;;;;;3.40;2.10;;;;;;;23.39;57.77;99673.50;4994280;28;20054;-80
2022/06/25 09:20:34;;;;;;;52.53;6.68;;;;;;;23.53;56.99;99678.78;4970308;28;20572;-77
2022/06/25 09:23:05;;;;;;;2.63;1.80;;;;;;;23.47;57.04;99680.50;4957569;28;20448;-79
2022/06/25 09:25:34;;;;;;;2.65;1.75;;;;;;;23.42;56.97;99677.63;4964673;28;20050;-78
2022/06/25 09:28:01;;;;;;;1.67;1.58;;;;;;;23.42;57.50;99679.53;4985253;28;20046;-78
2022/06/25 09:30:30;;;;;;;5.93;2.00;;;;;;;23.54;57.34;99670.44;4979319;28;20065;-78
2022/06/25 09:33:01;;;;;;;1.83;1.73;;;;;;;23.61;57.51;99675.78;4985026;28;20053;-78
2022/06/25 09:35:37;;;;;;;4.70;1.83;;;;;;;23.67;56.47;99671.34;4990734;28;20069;-78
2022/06/25 09:38:10;;;;;;;4.00;1.73;;;;;;;23.70;56.34;99670.88;4980444;28;20050;-79
2022/06/25 09:40:38;;;;;;;2.65;1.73;;;;;;;23.77;56.60;99675.22;4998772;28;20046;-78
2022/06/25 09:43:20;;;;;;;3.05;1.80;;;;;;;23.82;55.55;99671.84;4980140;28;20050;-79
2022/06/25 09:45:48;;;;;;;2.05;1.70;;;;;;;23.89;55.20;99679.88;4953503;28;20046;-78
2022/06/25 09:48:23;;;;;;;13.23;2.50;;;;;;;23.85;53.65;99674.09;4956113;28;20048;-78
2022/06/25 09:51:10;;;;;;;5.10;1.75;;;;;;;23.83;53.28;99674.28;4961060;28;20051;-78
2022/06/25 09:53:48;;;;;;;2.42;1.70;;;;;;;23.82;53.22;99671.84;4982576;28;20038;-79
2022/06/25 09:56:23;;;;;;;4.07;1.60;;;;;;;23.83;53.93;99665.34;4953982;28;20387;-79
2022/06/25 09:58:51;;;;;;;7.78;2.42;;;;;;;23.81;53.70;99668.31;4981796;28;20115;-77
2022/06/25 10:01:27;;;;;;;7.07;2.33;;;;;;;23.84;53.72;99672.44;4963893;28;20479;-78
2022/06/25 10:03:55;;;;;;;2.95;2.30;;;;;;;23.80;54.26;99668.50;4973428;28;20125;-77
2022/06/25 10:06:23;;;;;;;3.88;1.95;;;;;;;23.77;53.35;99669.78;4963757;28;20054;-82
2022/06/25 10:08:52;;;;;;;2.00;1.80;;;;;;;23.75;53.84;99665.66;4997859;28;20045;-81
2022/06/25 10:11:20;;;;;;;1.80;1.70;;;;;;;23.80;53.50;99665.81;4999562;28;20050;-78
2022/06/25 10:13:48;;;;;;;3.60;1.85;;;;;;;23.83;53.05;99670.75;4995224;28;20405;-78
2022/06/25 10:16:18;;;;;;;2.72;2.38;;;;;;;23.88;53.64;99668.19;4980844;28;20042;-78
2022/06/25 10:18:47;;;;;;;5.18;1.67;;;;;;;23.82;53.87;99664.53;4981630;28;20070;-78
2022/06/25 10:21:14;;;;;;;5.40;2.00;;;;;;;23.91;53.81;99666.91;4994014;28;20065;-78
2022/06/25 10:23:42;;;;;;;4.03;1.98;;;;;;;23.91;53.56;99647.94;4970995;28;20605;-78
2022/06/25 10:26:09;;;;;;;4.20;2.08;;;;;;;23.94;53.33;99653.75;4978349;28;20104;-78
2022/06/25 10:28:36;;;;;;;4.80;1.98;;;;;;;23.96;53.44;99653.50;4984153;28;20049;-76
2022/06/25 10:31:07;;;;;;;2.95;1.92;;;;;;;24.03;53.08;99652.38;4977590;28;20050;-78
2022/06/25 10:34:02;;;;;;;2.65;2.00;;;;;;;24.04;52.10;99655.91;4981902;28;20562;-79
2022/06/25 10:36:46;;;;;;;4.05;2.13;;;;;;;24.10;51.86;99641.44;4989175;28;20545;-81
2022/06/25 10:39:36;;;;;;;4.47;2.20;;;;;;;24.06;50.82;99651.09;4996045;28;20050;-80
2022/06/25 10:45:03;;;;;;;2.80;1.83;;;;;;;24.07;52.16;99638.34;4995244;28;20042;-80
2022/06/25 10:47:49;;;;;;;1.92;1.70;;;;;;;24.04;51.67;99628.78;4963436;28;20042;-80
2022/06/25 10:50:21;;;;;;;2.47;1.67;;;;;;;24.09;52.22;99634.34;4977036;28;20046;-78
2022/06/25 10:53:08;;;;;;;2.95;1.75;;;;;;;24.21;51.63;99623.53;4999847;28;20054;-73
2022/06/25 10:55:46;;;;;;;2.13;1.75;;;;;;;24.32;51.58;99625.47;4978174;28;20059;-76
2022/06/25 10:58:42;;;;;;;2.75;1.80;;;;;;;24.33;51.61;99619.00;4993865;28;20217;-79
2022/06/25 11:01:21;;;;;;;1.63;1.50;;;;;;;24.36;51.03;99623.13;4936765;28;20136;-82
2022/06/25 11:03:53;;;;;;;2.72;1.90;;;;;;;24.34;51.19;99622.53;4951494;28;20487;-82
2022/06/25 11:06:24;;;;;;;2.13;1.70;;;;;;;24.37;51.23;99605.78;4978933;28;20057;-80
2022/06/25 11:08:52;;;;;;;2.20;2.00;;;;;;;24.36;50.92;99609.56;4963043;28;20060;-80
2022/06/25 11:11:31;;;;;;;2.70;2.10;;;;;;;24.47;51.51;99606.06;4963838;28;20754;-82
2022/06/25 11:13:59;;;;;;;2.53;1.77;;;;;;;24.41;51.30;99598.84;4946798;28;20046;-82
2022/06/25 11:16:26;;;;;;;2.72;1.70;;;;;;;24.45;51.68;99590.03;4992793;28;20489;-82
2022/06/25 11:18:58;;;;;;;2.35;1.80;;;;;;;24.47;50.22;99595.22;4967290;28;20069;-82
2022/06/25 11:21:40;;;;;;;2.00;1.77;;;;;;;24.39;50.03;99593.63;4977846;28;20053;-85
2022/06/25 11:24:19;;;;;;;2.33;2.10;;;;;;;24.40;50.92;99584.44;4951020;28;20112;-82
2022/06/25 11:29:46;;;;;;;7.20;1.70;;;;;;;24.53;48.69;99580.72;4919377;28;20046;-84
2022/06/25 11:32:23;;;;;;;1.83;1.38;;;;;;;24.53;50.08;99580.72;4962508;28;20038;-85
2022/06/25 11:34:58;;;;;;;1.55;1.35;;;;;;;24.62;51.21;99579.31;4967432;28;20054;-81
2022/06/25 11:37:26;;;;;;;3.80;1.50;;;;;;;24.66;51.46;99588.66;4970218;28;20046;-82
2022/06/25 11:39:53;;;;;;;3.58;1.45;;;;;;;24.74;50.13;99592.09;4940113;28;20057;-82
2022/06/25 11:42:20;;;;;;;2.60;2.03;;;;;;;24.79;50.45;99586.78;4972679;28;20042;-84
2022/06/25 11:44:49;;;;;;;6.70;2.28;;;;;;;24.80;50.09;99586.53;4982481;28;20113;-79
2022/06/25 11:47:20;;;;;;;7.63;2.13;;;;;;;24.72;50.03;99589.59;4979314;28;20046;-80
2022/06/25 11:49:47;;;;;;;2.67;1.80;;;;;;;24.83;50.20;99583.38;4996387;28;20096;-80
2022/06/25 11:52:15;;;;;;;5.15;2.00;;;;;;;24.89;49.22;99581.59;4994176;28;20073;-80
2022/06/25 11:54:43;;;;;;;2.47;1.70;;;;;;;24.92;49.38;99583.84;4970957;28;20050;-80
2022/06/25 11:57:16;;;;;;;3.60;2.00;;;;;;;24.89;48.10;99579.69;4992397;28;20053;-81
2022/06/25 11:59:43;;;;;;;2.80;1.70;;;;;;;24.95;49.42;99575.22;4965370;28;20513;-81
2022/06/25 12:02:11;;;;;;;3.70;1.70;;;;;;;24.94;49.49;99580.91;4949869;28;20046;-85
2022/06/25 12:04:58;;;;;;;3.17;1.58;;;;;;;24.92;47.64;99581.13;4996595;28;20132;-86